createdAt,value
2023-03-22T00:01:22.686Z,56.77
2023-03-22T00:06:26.917Z,58.05
2023-03-22T00:11:30.569Z,59.33
2023-03-22T00:16:34.205Z,60.62
2023-03-22T00:21:37.830Z,68.15
2023-03-22T00:26:41.557Z,62.20
2023-03-22T00:31:45.227Z,53.57
2023-03-22T00:36:48.855Z,53.88
2023-03-22T00:41:52.194Z,55.71
2023-03-22T00:46:55.650Z,56.97
2023-03-22T00:51:59.204Z,58.17
2023-03-22T00:57:07.957Z,59.49
2023-03-22T01:02:15.177Z,60.55
2023-03-22T01:07:21.913Z,67.97
2023-03-22T01:12:25.519Z,63.21
2023-03-22T01:17:28.765Z,54.34
2023-03-22T01:22:32.205Z,53.94
2023-03-22T01:27:36.309Z,55.87
2023-03-22T01:32:40.236Z,57.24
2023-03-22T01:37:44.024Z,57.82
2023-03-22T01:42:48.080Z,59.26
2023-03-22T01:47:59.879Z,60.55
2023-03-22T01:53:05.335Z,68.33
2023-03-22T01:58:10.810Z,62.18
2023-03-22T02:03:56.033Z,53.12
2023-03-22T02:08:59.867Z,53.57
2023-03-22T02:14:29.525Z,54.96
2023-03-22T02:20:25.642Z,56.56
2023-03-22T02:25:32.912Z,57.83
2023-03-22T02:30:48.422Z,59.50
2023-03-22T02:36:12.937Z,60.35
2023-03-22T02:42:03.224Z,68.50
2023-03-22T02:47:17.338Z,61.02
2023-03-22T02:52:29.865Z,52.60
2023-03-22T02:57:45.649Z,53.27
2023-03-22T03:02:57.842Z,54.85
2023-03-22T03:08:02.916Z,57.09
2023-03-22T03:13:06.764Z,57.81
2023-03-22T03:18:26.744Z,57.46
2023-03-22T03:23:49.869Z,59.21
2023-03-22T03:28:58.396Z,60.04
2023-03-22T03:34:23.556Z,68.08
2023-03-22T03:39:30.750Z,63.71
2023-03-22T03:44:36.804Z,54.60
2023-03-22T03:49:41.018Z,54.24
2023-03-22T03:54:45.878Z,56.28
2023-03-22T03:59:52.237Z,57.79
2023-03-22T04:05:07.687Z,59.06
2023-03-22T04:10:11.016Z,60.45
2023-03-22T04:15:14.354Z,68.39
2023-03-22T04:20:19.862Z,64.60
2023-03-22T04:25:23.601Z,55.33
2023-03-22T04:30:45.921Z,54.63
2023-03-22T04:36:11.475Z,56.22
2023-03-22T04:41:26.542Z,57.92
2023-03-22T04:46:34.973Z,59.04
2023-03-22T04:51:40.008Z,60.30
2023-03-22T04:56:58.609Z,68.80
2023-03-22T05:02:04.186Z,62.79
2023-03-22T05:07:14.234Z,53.54
2023-03-22T05:12:27.877Z,53.58
2023-03-22T05:17:38.642Z,55.01
2023-03-22T05:22:42.124Z,56.80
2023-03-22T05:27:47.078Z,57.89
2023-03-22T05:33:11.090Z,59.01
2023-03-22T05:38:19.381Z,60.45
2023-03-22T05:43:26.775Z,68.68
2023-03-22T05:48:30.783Z,64.42
2023-03-22T05:53:35.072Z,55.07
2023-03-22T05:59:02.971Z,54.92
2023-03-22T06:04:07.018Z,56.21
2023-03-22T06:09:20.449Z,57.59
2023-03-22T06:14:26.637Z,58.94
2023-03-22T06:19:54.613Z,59.69
2023-03-22T06:24:58.058Z,68.09
2023-03-22T06:30:09.222Z,63.26
2023-03-22T06:35:23.602Z,53.36
2023-03-22T06:40:28.313Z,53.64
2023-03-22T06:45:33.698Z,55.88
2023-03-22T06:50:40.368Z,57.07
2023-03-22T06:55:55.649Z,59.04
2023-03-22T07:01:00.887Z,66.55
2023-03-22T07:06:07.193Z,61.24
2023-03-22T07:11:12.585Z,52.99
2023-03-22T07:16:19.856Z,54.38
2023-03-22T07:21:36.375Z,55.90
2023-03-22T07:26:42.424Z,57.14
2023-03-22T07:31:46.905Z,58.28
2023-03-22T07:37:00.179Z,59.50
2023-03-22T07:42:04.384Z,60.58
2023-03-22T07:47:39.881Z,69.13
2023-03-22T07:53:12.033Z,59.99
2023-03-22T07:58:15.389Z,53.25
2023-03-22T08:03:19.388Z,54.87
2023-03-22T08:08:37.229Z,56.11
2023-03-22T08:13:41.343Z,57.10
2023-03-22T08:18:46.055Z,58.38
2023-03-22T08:23:50.017Z,58.47
2023-03-22T08:29:31.607Z,58.70
2023-03-22T08:34:40.157Z,59.66
2023-03-22T08:39:44.225Z,60.56
2023-03-22T08:45:01.905Z,60.28
2023-03-22T08:50:07.258Z,60.22
2023-03-22T08:55:17.880Z,60.07
2023-03-22T09:00:48.660Z,59.41
2023-03-22T09:06:02.314Z,59.42
2023-03-22T09:11:12.580Z,59.18
2023-03-22T09:16:17.155Z,58.71
2023-03-22T09:21:22.234Z,58.48
2023-03-22T09:26:37.302Z,57.69
2023-03-22T09:31:42.184Z,57.97
2023-03-22T09:36:53.066Z,57.80
2023-03-22T09:42:03.513Z,57.51
2023-03-22T09:47:14.009Z,57.51
2023-03-22T09:52:18.246Z,56.72
2023-03-22T09:57:37.745Z,56.69
2023-03-22T10:03:05.697Z,57.27
2023-03-22T10:08:22.526Z,57.38
2023-03-22T10:14:00.465Z,56.49
2023-03-22T10:19:45.255Z,56.14
2023-03-22T10:24:51.406Z,55.77
2023-03-22T10:30:10.721Z,55.09
2023-03-22T10:35:15.741Z,54.68
2023-03-22T10:40:25.092Z,55.43
2023-03-22T10:45:28.855Z,55.24
2023-03-22T10:50:36.877Z,55.37
2023-03-22T10:55:42.032Z,55.32
2023-03-22T11:00:48.676Z,55.50
2023-03-22T11:06:19.704Z,55.34
2023-03-22T11:11:25.064Z,55.14
2023-03-22T11:16:31.230Z,54.99
2023-03-22T11:21:35.253Z,53.93
2023-03-22T11:26:41.334Z,53.12
2023-03-22T11:31:55.632Z,52.18
2023-03-22T11:37:02.418Z,52.68
2023-03-22T11:42:06.937Z,51.28
2023-03-22T11:47:14.152Z,50.94
2023-03-22T11:52:27.928Z,49.76
2023-03-22T11:57:34.923Z,50.66
2023-03-22T12:02:48.872Z,50.39
2023-03-22T12:08:02.567Z,49.91
2023-03-22T12:13:15.959Z,48.58
2023-03-22T12:18:28.306Z,48.75
2023-03-22T12:23:35.517Z,48.52
2023-03-22T12:28:49.824Z,48.41
2023-03-22T12:33:56.672Z,48.45
2023-03-22T12:39:02.732Z,47.90
2023-03-22T12:44:18.816Z,47.87
2023-03-22T12:49:32.634Z,47.17
2023-03-22T12:54:38.040Z,46.36
2023-03-22T12:59:45.584Z,46.58
2023-03-22T13:05:05.343Z,45.44
2023-03-22T13:10:31.381Z,44.50
2023-03-22T13:15:42.308Z,44.51
2023-03-22T13:21:11.795Z,45.15
2023-03-22T13:26:16.482Z,44.98
2023-03-22T13:31:37.994Z,44.48
2023-03-22T13:36:50.395Z,44.59
2023-03-22T13:42:09.017Z,43.78
2023-03-22T13:47:46.708Z,42.47
2023-03-22T13:53:22.497Z,41.74
2023-03-22T13:58:36.681Z,40.30
2023-03-22T14:03:43.061Z,40.84
2023-03-22T14:08:50.065Z,40.68
2023-03-22T14:14:16.096Z,40.79
2023-03-22T14:19:23.743Z,40.87
